createdAt,value
2023-11-23T00:02:06.978Z,100.00
2023-11-23T00:07:08.597Z,100.00
2023-11-23T00:12:10.292Z,100.00
2023-11-23T00:17:11.895Z,100.00
2023-11-23T00:22:13.622Z,100.00
2023-11-23T00:27:16.349Z,100.00
2023-11-23T00:32:19.108Z,100.00
2023-11-23T00:37:23.095Z,100.00
2023-11-23T00:42:25.839Z,100.00
2023-11-23T00:47:27.634Z,100.00
2023-11-23T00:52:30.379Z,100.00
2023-11-23T00:57:33.385Z,100.00
2023-11-23T01:02:37.158Z,100.00
2023-11-23T01:07:39.531Z,100.00
2023-11-23T01:12:41.060Z,100.00
2023-11-23T01:17:43.343Z,100.00
2023-11-23T01:22:45.358Z,100.00
2023-11-23T01:27:46.946Z,100.00
2023-11-23T01:32:49.363Z,100.00
2023-11-23T01:37:51.006Z,100.00
2023-11-23T01:42:52.520Z,100.00
2023-11-23T01:47:54.739Z,100.00
2023-11-23T01:52:56.560Z,100.00
2023-11-23T01:58:03.491Z,100.00
2023-11-23T02:03:05.718Z,100.00
2023-11-23T02:08:08.315Z,100.00
2023-11-23T02:13:09.935Z,100.00
2023-11-23T02:18:12.745Z,100.00
2023-11-23T02:23:14.547Z,100.00
2023-11-23T02:28:16.232Z,100.00
2023-11-23T02:33:17.935Z,100.00
2023-11-23T02:38:19.549Z,100.00
2023-11-23T02:43:21.999Z,100.00
2023-11-23T02:48:23.849Z,100.00
2023-11-23T02:53:29.529Z,100.00
2023-11-23T02:58:31.095Z,100.00
2023-11-23T03:03:33.085Z,100.00
2023-11-23T03:08:34.703Z,100.00
2023-11-23T03:13:36.280Z,100.00
2023-11-23T03:18:38.164Z,100.00
2023-11-23T03:23:42.439Z,100.00
2023-11-23T03:28:44.202Z,100.00
2023-11-23T03:33:45.750Z,100.00
2023-11-23T03:38:49.438Z,100.00
2023-11-23T03:43:51.535Z,100.00
2023-11-23T03:48:54.514Z,100.00
2023-11-23T03:53:56.173Z,100.00
2023-11-23T03:58:57.804Z,100.00
2023-11-23T04:03:59.453Z,100.00
2023-11-23T04:09:01.041Z,100.00
2023-11-23T04:14:02.697Z,100.00
2023-11-23T04:19:04.811Z,100.00
2023-11-23T04:24:06.854Z,100.00
2023-11-23T04:29:08.573Z,100.00
2023-11-23T04:34:10.166Z,100.00
2023-11-23T04:39:14.120Z,100.00
2023-11-23T04:44:16.726Z,100.00
2023-11-23T04:49:18.437Z,100.00
2023-11-23T04:54:20.060Z,100.00
2023-11-23T04:59:21.836Z,100.00
2023-11-23T05:04:23.437Z,100.00
2023-11-23T05:09:25.114Z,100.00
2023-11-23T05:14:26.679Z,100.00
2023-11-23T05:19:36.198Z,100.00
2023-11-23T05:24:44.031Z,100.00
2023-11-23T05:29:47.619Z,100.00
2023-11-23T05:34:51.066Z,100.00
2023-11-23T05:39:52.678Z,100.00
2023-11-23T05:44:54.260Z,100.00
2023-11-23T05:49:55.854Z,100.00
2023-11-23T05:54:57.963Z,100.00
2023-11-23T05:59:59.524Z,100.00
2023-11-23T06:05:01.135Z,100.00
2023-11-23T06:10:06.022Z,100.00
2023-11-23T06:15:08.566Z,100.00
2023-11-23T06:20:13.668Z,100.00
2023-11-23T06:25:16.337Z,100.00
2023-11-23T06:30:19.197Z,100.00
2023-11-23T06:35:20.946Z,100.00
2023-11-23T06:40:22.545Z,100.00
2023-11-23T06:45:24.116Z,100.00
2023-11-23T06:50:25.663Z,100.00
2023-11-23T06:55:27.237Z,100.00
2023-11-23T07:00:29.082Z,100.00
2023-11-23T07:05:30.772Z,100.00
2023-11-23T07:10:35.324Z,100.00
2023-11-23T07:15:37.159Z,100.00
2023-11-23T07:20:39.442Z,100.00
2023-11-23T07:25:44.787Z,100.00
2023-11-23T07:30:46.412Z,100.00
2023-11-23T07:35:49.602Z,100.00
2023-11-23T07:40:51.230Z,100.00
2023-11-23T07:45:52.781Z,100.00
2023-11-23T07:50:54.440Z,100.00
2023-11-23T07:55:56.156Z,100.00
2023-11-23T08:00:58.742Z,100.00
2023-11-23T08:06:00.465Z,100.00
2023-11-23T08:11:02.160Z,100.00
2023-11-23T08:16:05.434Z,100.00
2023-11-23T08:21:07.210Z,100.00
2023-11-23T08:26:09.537Z,100.00
2023-11-23T08:31:11.232Z,100.00
2023-11-23T08:36:12.861Z,100.00
2023-11-23T08:41:14.516Z,100.00
2023-11-23T08:46:16.102Z,100.00
2023-11-23T08:51:17.710Z,100.00
2023-11-23T08:56:19.332Z,100.00
2023-11-23T09:01:21.508Z,100.00
2023-11-23T09:06:24.050Z,100.00
2023-11-23T09:11:27.207Z,100.00
2023-11-23T09:16:28.751Z,100.00
2023-11-23T09:21:30.409Z,100.00
2023-11-23T09:26:33.491Z,100.00
2023-11-23T09:31:35.699Z,100.00
2023-11-23T09:36:37.335Z,100.00
2023-11-23T09:41:44.958Z,100.00
2023-11-23T09:46:47.559Z,100.00
2023-11-23T09:51:53.272Z,100.00
2023-11-23T09:56:55.401Z,100.00
2023-11-23T10:02:05.424Z,100.00
2023-11-23T10:07:07.632Z,100.00
2023-11-23T10:12:09.300Z,100.00
2023-11-23T10:17:10.922Z,100.00
2023-11-23T10:22:12.521Z,100.00
2023-11-23T10:27:14.112Z,100.00
2023-11-23T10:32:17.508Z,100.00
2023-11-23T10:37:24.986Z,100.00
2023-11-23T10:42:32.930Z,100.00
2023-11-23T10:47:37.731Z,100.00
2023-11-23T10:52:43.010Z,100.00
2023-11-23T10:57:56.956Z,100.00
2023-11-23T11:03:03.991Z,100.00
2023-11-23T11:08:08.381Z,100.00
2023-11-23T11:13:15.771Z,100.00
2023-11-23T11:18:22.215Z,100.00
2023-11-23T11:23:23.763Z,100.00
2023-11-23T11:28:29.688Z,100.00
2023-11-23T11:33:33.040Z,100.00
2023-11-23T11:38:40.494Z,100.00
2023-11-23T11:43:45.357Z,100.00
2023-11-23T11:48:47.608Z,100.00
2023-11-23T11:53:49.240Z,100.00
2023-11-23T11:58:50.882Z,100.00
2023-11-23T12:03:52.637Z,100.00
2023-11-23T12:08:54.307Z,100.00
2023-11-23T12:13:56.646Z,100.00
2023-11-23T12:18:58.213Z,100.00
2023-11-23T12:24:01.315Z,100.00
2023-11-23T12:29:04.141Z,100.00
2023-11-23T12:34:06.367Z,100.00
2023-11-23T12:39:08.565Z,100.00
2023-11-23T12:44:10.485Z,100.00
2023-11-23T12:49:12.151Z,100.00
2023-11-23T12:54:16.211Z,100.00
2023-11-23T12:59:18.140Z,100.00
2023-11-23T13:04:21.465Z,100.00
2023-11-23T13:09:25.369Z,100.00
2023-11-23T13:14:28.155Z,100.00
2023-11-23T13:19:39.953Z,100.00
2023-11-23T13:24:44.850Z,100.00
2023-11-23T13:29:46.414Z,100.00
2023-11-23T13:34:48.049Z,100.00
2023-11-23T13:39:49.652Z,100.00
2023-11-23T13:44:51.218Z,100.00
2023-11-23T13:49:54.109Z,100.00
2023-11-23T13:54:55.700Z,100.00
2023-11-23T13:59:58.864Z,100.00
2023-11-23T14:05:00.456Z,100.00
2023-11-23T14:10:02.120Z,100.00
2023-11-23T14:15:04.799Z,100.00
2023-11-23T14:20:07.911Z,100.00
2023-11-23T14:25:10.359Z,100.00
2023-11-23T14:30:12.806Z,100.00
2023-11-23T14:35:16.083Z,100.00
2023-11-23T14:40:20.287Z,100.00
2023-11-23T14:45:22.977Z,100.00
2023-11-23T14:50:28.081Z,100.00
2023-11-23T14:55:29.645Z,100.00
2023-11-23T15:00:31.853Z,100.00
2023-11-23T15:05:33.653Z,100.00
2023-11-23T15:10:35.229Z,100.00
2023-11-23T15:15:37.153Z,100.00
2023-11-23T15:20:39.994Z,100.00
2023-11-23T15:25:46.997Z,100.00
2023-11-23T15:30:48.866Z,100.00
2023-11-23T15:35:50.971Z,100.00
2023-11-23T15:40:52.759Z,100.00
2023-11-23T15:45:54.307Z,100.00
2023-11-23T15:50:55.871Z,100.00
2023-11-23T15:55:57.434Z,100.00
2023-11-23T16:01:00.296Z,100.00
2023-11-23T16:06:02.167Z,100.00
2023-11-23T16:11:04.250Z,100.00
2023-11-23T16:16:07.316Z,100.00
2023-11-23T16:21:09.684Z,100.00
2023-11-23T16:26:11.335Z,100.00
2023-11-23T16:31:12.956Z,100.00
2023-11-23T16:36:26.404Z,100.00
2023-11-23T16:41:35.052Z,100.00
2023-11-23T16:46:36.591Z,100.00
2023-11-23T16:51:41.738Z,100.00
2023-11-23T16:56:43.310Z,100.00
2023-11-23T17:01:46.068Z,100.00
2023-11-23T17:06:47.817Z,100.00
2023-11-23T17:11:53.705Z,100.00
2023-11-23T17:16:55.444Z,100.00
2023-11-23T17:21:58.277Z,100.00
2023-11-23T17:27:00.428Z,100.00
2023-11-23T17:32:06.081Z,100.00
2023-11-23T17:37:08.220Z,100.00
2023-11-23T17:42:09.771Z,100.00
2023-11-23T17:47:12.244Z,100.00
2023-11-23T17:52:14.644Z,100.00
2023-11-23T17:57:16.504Z,100.00
2023-11-23T18:02:21.269Z,100.00
2023-11-23T18:07:23.125Z,100.00
2023-11-23T18:12:24.931Z,100.00
2023-11-23T18:17:26.539Z,100.00
2023-11-23T18:22:28.111Z,100.00
2023-11-23T18:27:29.888Z,100.00
2023-11-23T18:32:33.066Z,100.00
2023-11-23T18:37:34.830Z,100.00
2023-11-23T18:42:40.305Z,100.00
2023-11-23T18:47:45.444Z,100.00
2023-11-23T18:52:47.023Z,100.00
2023-11-23T18:57:48.656Z,100.00
2023-11-23T19:02:53.056Z,100.00
2023-11-23T19:07:55.290Z,100.00
2023-11-23T19:13:04.091Z,100.00
2023-11-23T19:18:09.125Z,100.00
2023-11-23T19:23:11.284Z,100.00
2023-11-23T19:28:13.277Z,100.00
2023-11-23T19:33:15.303Z,100.00
2023-11-23T19:38:17.204Z,100.00
2023-11-23T19:43:18.994Z,100.00
2023-11-23T19:48:20.854Z,100.00
2023-11-23T19:53:26.754Z,100.00
2023-11-23T19:58:28.355Z,100.00
2023-11-23T20:03:30.740Z,100.00
2023-11-23T20:08:33.006Z,100.00
2023-11-23T20:13:34.578Z,100.00
2023-11-23T20:18:36.317Z,100.00
2023-11-23T20:23:39.537Z,100.00
2023-11-23T20:28:41.185Z,100.00
2023-11-23T20:33:42.802Z,100.00
2023-11-23T20:38:45.262Z,100.00
2023-11-23T20:43:46.804Z,100.00
2023-11-23T20:48:50.853Z,100.00
2023-11-23T20:53:53.710Z,100.00
2023-11-23T20:58:59.652Z,100.00
2023-11-23T21:04:01.741Z,100.00
2023-11-23T21:09:04.434Z,100.00
2023-11-23T21:14:08.262Z,100.00
2023-11-23T21:19:09.861Z,100.00
2023-11-23T21:24:14.047Z,100.00
2023-11-23T21:29:16.315Z,100.00
2023-11-23T21:34:17.985Z,100.00
2023-11-23T21:39:19.534Z,100.00
2023-11-23T21:44:21.673Z,100.00
2023-11-23T21:49:23.289Z,100.00
2023-11-23T21:54:25.176Z,100.00
2023-11-23T21:59:27.953Z,100.00
2023-11-23T22:04:29.706Z,100.00
2023-11-23T22:09:31.808Z,100.00
2023-11-23T22:14:33.448Z,100.00
2023-11-23T22:19:35.246Z,100.00
2023-11-23T22:24:38.679Z,100.00
2023-11-23T22:29:40.473Z,100.00
2023-11-23T22:34:42.390Z,100.00
2023-11-23T22:39:44.077Z,100.00
2023-11-23T22:44:45.816Z,100.00
2023-11-23T22:49:48.771Z,100.00
2023-11-23T22:54:52.315Z,100.00
2023-11-23T22:59:53.885Z,100.00
2023-11-23T23:04:55.417Z,100.00
2023-11-23T23:09:56.984Z,99.77
2023-11-23T23:14:58.546Z,98.17
2023-11-23T23:20:04.018Z,97.41
2023-11-23T23:25:06.096Z,98.30
2023-11-23T23:30:10.058Z,97.30
2023-11-23T23:35:11.968Z,96.73
2023-11-23T23:40:14.785Z,96.12
2023-11-23T23:45:16.488Z,94.27
2023-11-23T23:50:19.575Z,98.72
2023-11-23T23:55:21.485Z,97.92
